South Newbury, New Hampshire
Current Conditions -  °F | °C
As of 11:51 AM on Saturday 20 Dec 2014 (Local Time) from KCON Reporting Station
Clear Clear  
Wind Chill: 26°   Ceiling: Unl
Heat Index: 32°   Visibility: 10mi
Dew Point: 19°   Wind: 6mph
Humidity: 59%   Direction: 30°NNE
Pressure: 30.27"   Gusts: NA
Location:  43.3°N, 72°W
Report Text: KCON 201651Z AUTO 03005KT 10SM CLR 00/M07 A3027 RMK AO2 SLP258 T00001072
Loading
Personal Weather Stations






























Interactive Weather Map New forecast layout! Learn more

10-Day Weather Forecast

Advertisements
Track Severe Weather on mobile